To NAV CANADA Home Page Login to a new session Search on AWWS site Feedback and Comments Disclaimer Vers la page française équivalente Tips FAQ What's new on the site To the Forecasts and Observations / NOTAM section To "File a Flight Plan" website Publications and other links Update of the User's profile FIC Telephone Numbers My Weather Data Folder Route Weather Data Regional Weather Data Local Weather Data To the Forecasts and Observations / NOTAM section
Request Generated 10/01/2016 at 20:35:51 UTC . Weather information available at that time is displayed.

METAR/TAF

MONCTON/GREATER MONCTON INTL/NB    

METAR CYQM 012000Z 19005KT 15SM FEW050 FEW120 BKN220 17/07 A3030 RMK
SC1AC1CI5 SLP265=
METAR CYQM 011900Z VRB04KT 15SM FEW050 SCT150 BKN240 18/04 A3032 RMK
SC1AC2CI4 SLP270=
METAR CYQM 011800Z 21004KT 150V280 15SM FEW050 BKN220 BKN250 18/06
A3033 RMK SC1CS4CI2 SLP275=

TAF CYQM 011738Z 0118/0218 24005KT P6SM FEW050 BKN220
BECMG 0120/0122 VRB03KT
FM020900 VRB03KT P6SM BKN080 OVC150
RMK NXT FCST BY 020000Z=
Your time UTC time
Weather data provided by Environment Canada and NAV CANADA